Meath Environmental Platform

Observations

Time Sensor AQI SAQ Temp °C Hum % Pres Pa CO μg/m³ H₂S μg/m³ NO μg/m³ NO₂ μg/m³ O₃ μg/m³ SO₂ μg/m³ CO₂e PPM VOC PPM PM1 μg/m³ PM2.5 μg/m³ PM4 μg/m³ PM10 μg/m³ TPS µm
Tuesday 11 August 2026
02:44 Trim Patrick St 1 12 77 38,460 0.32 4.76 4.03 28.78 9.87 0 3.71 7.56 8.32
02:44 Trim Market St 2 13.7 68 56,505 0.31 0 3.41 16.4 38 0 1.43 2.64 4.98
02:43 Trim Patrick St 1 12 77 38,460 0.31 5.04 4.02 30.15 10.54 0 3.71 8.27 9.1
02:42 Trim Patrick St 1 12.1 77 38,460 0.31 5.38 4 30.52 11.22 0 2.86 6.15 6.76
02:41 Trim Patrick St 1 12.1 76 38,460 0.31 5.02 4 31.87 10.08 0 2.86 6.86 7.55
02:40 Trim Patrick St 1 12.1 76 38,460 0.31 4.99 4 30.96 10.79 0 2.86 5.46 6
02:39 Trim Patrick St 1 12.1 76 38,460 0.31 4.66 4 30.05 12.82 0 3.71 6.87 7.56
02:38 Trim Patrick St 1 12.1 76 38,460 0.3 4.97 4 30.5 11.9 0 2.86 6.17 6.79
02:37 Trim Patrick St 1 12.1 76 38,460 0.31 4.74 4 30.94 12.27 0 2.86 6.88 7.57
02:37 Trim Market St 2 13.7 68 56,694 0.3 0 3.43 15.15 41.74 0 2.14 3.64 5.61
02:36 Trim Patrick St 1 12.1 76 38,460 0.31 4.63 3.95 30.49 10.83 0 2.86 6.88 7.57
02:36 Trim Market St 2 13.8 68 56,720 0.29 0 2.64 17.68 38.58 0 2.14 4.13 6.25
02:35 Trim Market St 2 13.8 68 56,745 0.3 0 2.61 14.77 38.67 0 2.14 3.64 5.61
02:34 Trim Patrick St 1 12.1 76 38,460 0.31 5.3 3.97 30.93 11.46 0 2.86 7.6 8.36
02:33 Trim Patrick St 1 12.2 76 38,460 0.3 5.67 3.96 33.57 10.74 0 2.86 7.61 8.37
02:32 Trim Patrick St 1 12.2 76 38,460 0.3 5.62 3.97 33.57 10.49 0 3.71 6.9 7.59
02:32 Trim Market St 2 13.8 68 56,814 0.3 0 3.15 14.23 41.65 0 1.43 3.65 6.89
02:31 Trim Patrick St 1 12.2 76 38,460 0.3 4.92 3.97 31.29 9.93 0 4.57 7.61 8.38
02:31 Trim Market St 2 13.8 68 56,833 0.31 0 3.32 15.83 39.36 0 2.14 4.15 6.25
02:30 Trim Patrick St 1 12.2 76 38,460 0.3 5.07 3.97 30.37 12.54 0 3.71 7.62 8.38